GLO683 TBPB-TTCP
Flight info
| Callsign | GLO683 |
|---|---|
| Flight time | 0h 37m |
| Altitude | 16000 |
| Route | BGI R515 TABEX DCT PIBNA DCT SASIM DCT NOTEL |
| Aircraft | B38M/M-SDE1FGHILORVWXY/HB1 |
Departure
| Time | 2026-05-07 21:12 |
|---|---|
| Airport | Grantley Adams International Airport (TBPB) |
Arrival
| Time | 2026-05-07 21:50 |
|---|---|
| Airport | A.N.R. Robinson International Airport (TTCP) |
| Time | Latitude | Longitude | Altitude | Speed | Heading |
|---|---|---|---|---|---|
| 2026-05-07 21:01 | 13.07827 | -59.48602 | 175 ft | 2 kts | 315° |
| 2026-05-07 21:02 | 13.07819 | -59.48588 | 175 ft | 2 kts | 285° |
| 2026-05-07 21:02 | 13.07816 | -59.48573 | 175 ft | 1 kts | 278° |
| 2026-05-07 21:02 | 13.07815 | -59.48569 | 175 ft | 0 kts | 278° |
| 2026-05-07 21:05 | 13.07816 | -59.48573 | 175 ft | 2 kts | 278° |
| 2026-05-07 21:05 | 13.07807 | -59.48617 | 175 ft | 10 kts | 256° |
| 2026-05-07 21:06 | 13.07787 | -59.48700 | 175 ft | 13 kts | 256° |
| 2026-05-07 21:06 | 13.07737 | -59.48791 | 175 ft | 16 kts | 244° |
| 2026-05-07 21:06 | 13.07716 | -59.48868 | 175 ft | 12 kts | 256° |
| 2026-05-07 21:06 | 13.07693 | -59.48961 | 176 ft | 15 kts | 255° |
| 2026-05-07 21:07 | 13.07665 | -59.49074 | 175 ft | 18 kts | 256° |
| 2026-05-07 21:07 | 13.07638 | -59.49182 | 175 ft | 12 kts | 256° |
| 2026-05-07 21:07 | 13.07616 | -59.49273 | 175 ft | 15 kts | 255° |
| 2026-05-07 21:07 | 13.07589 | -59.49384 | 174 ft | 18 kts | 258° |
| 2026-05-07 21:08 | 13.07557 | -59.49516 | 174 ft | 20 kts | 256° |
| 2026-05-07 21:08 | 13.07520 | -59.49664 | 174 ft | 23 kts | 256° |
| 2026-05-07 21:08 | 13.07495 | -59.49769 | 174 ft | 16 kts | 256° |
| 2026-05-07 21:08 | 13.07463 | -59.49890 | 174 ft | 19 kts | 254° |
| 2026-05-07 21:09 | 13.07432 | -59.50027 | 174 ft | 21 kts | 256° |
| 2026-05-07 21:09 | 13.07393 | -59.50184 | 174 ft | 24 kts | 256° |
| 2026-05-07 21:09 | 13.07361 | -59.50314 | 174 ft | 13 kts | 255° |
| 2026-05-07 21:09 | 13.07337 | -59.50412 | 175 ft | 16 kts | 256° |
| 2026-05-07 21:10 | 13.07308 | -59.50529 | 174 ft | 18 kts | 256° |
| 2026-05-07 21:10 | 13.07280 | -59.50647 | 174 ft | 11 kts | 256° |
| 2026-05-07 21:10 | 13.07243 | -59.50722 | 174 ft | 10 kts | 212° |
| 2026-05-07 21:10 | 13.07188 | -59.50722 | 174 ft | 6 kts | 164° |
| 2026-05-07 21:11 | 13.07137 | -59.50707 | 174 ft | 9 kts | 164° |
| 2026-05-07 21:11 | 13.07111 | -59.50695 | 175 ft | 3 kts | 128° |
| 2026-05-07 21:11 | 13.07114 | -59.50634 | 175 ft | 5 kts | 76° |
| 2026-05-07 21:12 | 13.07143 | -59.50512 | 175 ft | 46 kts | 76° |
| 2026-05-07 21:12 | 13.07280 | -59.49958 | 177 ft | 112 kts | 76° |
| 2026-05-07 21:12 | 13.07506 | -59.49017 | 226 ft | 156 kts | 76° |
| 2026-05-07 21:12 | 13.07773 | -59.47931 | 816 ft | 156 kts | 75° |
| 2026-05-07 21:13 | 13.07946 | -59.46800 | 1476 ft | 165 kts | 91° |
| 2026-05-07 21:13 | 13.07565 | -59.45610 | 1986 ft | 192 kts | 122° |
| 2026-05-07 21:13 | 13.06480 | -59.44756 | 2661 ft | 210 kts | 156° |
| 2026-05-07 21:13 | 13.04957 | -59.44607 | 3219 ft | 234 kts | 187° |
| 2026-05-07 21:14 | 13.03376 | -59.45159 | 4010 ft | 246 kts | 207° |
| 2026-05-07 21:14 | 13.01929 | -59.46172 | 4842 ft | 254 kts | 220° |
| 2026-05-07 21:14 | 13.00507 | -59.47327 | 5636 ft | 264 kts | 219° |
| 2026-05-07 21:14 | 12.99056 | -59.48484 | 6542 ft | 268 kts | 219° |
| 2026-05-07 21:15 | 12.97539 | -59.49669 | 7110 ft | 285 kts | 218° |
| 2026-05-07 21:15 | 12.95923 | -59.50915 | 7814 ft | 293 kts | 218° |
| 2026-05-07 21:15 | 12.94286 | -59.52184 | 8709 ft | 297 kts | 218° |
| 2026-05-07 21:15 | 12.92632 | -59.53464 | 9539 ft | 301 kts | 218° |
| 2026-05-07 21:16 | 12.90932 | -59.54780 | 10336 ft | 307 kts | 218° |
| 2026-05-07 21:16 | 12.89205 | -59.56114 | 10888 ft | 322 kts | 217° |
| 2026-05-07 21:16 | 12.87387 | -59.57517 | 11600 ft | 329 kts | 217° |
| 2026-05-07 21:16 | 12.85549 | -59.58941 | 12486 ft | 333 kts | 218° |
| 2026-05-07 21:17 | 12.83688 | -59.60381 | 13313 ft | 339 kts | 218° |
| 2026-05-07 21:17 | 12.81792 | -59.61849 | 14136 ft | 344 kts | 218° |
| 2026-05-07 21:17 | 12.79865 | -59.63339 | 15004 ft | 346 kts | 218° |
| 2026-05-07 21:17 | 12.77933 | -59.64834 | 15667 ft | 349 kts | 219° |
| 2026-05-07 21:18 | 12.76031 | -59.66305 | 15873 ft | 344 kts | 219° |
| 2026-05-07 21:18 | 12.74129 | -59.67778 | 15987 ft | 341 kts | 219° |
| 2026-05-07 21:18 | 12.72237 | -59.69242 | 15992 ft | 340 kts | 219° |
| 2026-05-07 21:18 | 12.70349 | -59.70702 | 15983 ft | 339 kts | 219° |
| 2026-05-07 21:19 | 12.68486 | -59.72143 | 15986 ft | 339 kts | 219° |
| 2026-05-07 21:19 | 12.66596 | -59.73603 | 15985 ft | 339 kts | 219° |
| 2026-05-07 21:19 | 12.64704 | -59.75066 | 15984 ft | 339 kts | 219° |
| 2026-05-07 21:19 | 12.62841 | -59.76506 | 15986 ft | 339 kts | 219° |
| 2026-05-07 21:20 | 12.60958 | -59.77960 | 15984 ft | 339 kts | 218° |
| 2026-05-07 21:20 | 12.59069 | -59.79418 | 15983 ft | 339 kts | 219° |
| 2026-05-07 21:20 | 12.57184 | -59.80874 | 15984 ft | 339 kts | 219° |
| 2026-05-07 21:20 | 12.55294 | -59.82334 | 15982 ft | 339 kts | 219° |
| 2026-05-07 21:21 | 12.53426 | -59.83775 | 15983 ft | 339 kts | 219° |
| 2026-05-07 21:21 | 12.51540 | -59.85231 | 15983 ft | 339 kts | 219° |
| 2026-05-07 21:21 | 12.49653 | -59.86687 | 15984 ft | 339 kts | 219° |
| 2026-05-07 21:21 | 12.47756 | -59.88151 | 15984 ft | 339 kts | 219° |
| 2026-05-07 21:22 | 12.45892 | -59.89588 | 15978 ft | 339 kts | 219° |
| 2026-05-07 21:22 | 12.43997 | -59.91050 | 15982 ft | 339 kts | 219° |
| 2026-05-07 21:22 | 12.42108 | -59.92506 | 15981 ft | 339 kts | 219° |
| 2026-05-07 21:22 | 12.40218 | -59.93964 | 15984 ft | 340 kts | 218° |
| 2026-05-07 21:23 | 12.38350 | -59.95404 | 15983 ft | 340 kts | 219° |
| 2026-05-07 21:23 | 12.36452 | -59.96866 | 15982 ft | 340 kts | 219° |
| 2026-05-07 21:23 | 12.34574 | -59.98313 | 15982 ft | 340 kts | 219° |
| 2026-05-07 21:23 | 12.32679 | -59.99773 | 15983 ft | 340 kts | 218° |
| 2026-05-07 21:24 | 12.30788 | -60.01230 | 15982 ft | 340 kts | 219° |
| 2026-05-07 21:24 | 12.28918 | -60.02670 | 15979 ft | 340 kts | 219° |
| 2026-05-07 21:24 | 12.27025 | -60.04127 | 15983 ft | 340 kts | 218° |
| 2026-05-07 21:24 | 12.25133 | -60.05584 | 15980 ft | 340 kts | 218° |
| 2026-05-07 21:25 | 12.23263 | -60.07023 | 15979 ft | 340 kts | 218° |
| 2026-05-07 21:25 | 12.21370 | -60.08479 | 15980 ft | 340 kts | 219° |
| 2026-05-07 21:25 | 12.19477 | -60.09936 | 15981 ft | 340 kts | 219° |
| 2026-05-07 21:25 | 12.17609 | -60.11373 | 15982 ft | 340 kts | 218° |
| 2026-05-07 21:26 | 12.15716 | -60.12829 | 15980 ft | 340 kts | 218° |
| 2026-05-07 21:26 | 12.13802 | -60.14275 | 15976 ft | 340 kts | 216° |
| 2026-05-07 21:26 | 12.11867 | -60.15617 | 15979 ft | 341 kts | 216° |
| 2026-05-07 21:26 | 12.09903 | -60.16983 | 15976 ft | 340 kts | 216° |
| 2026-05-07 21:27 | 12.07947 | -60.18350 | 15977 ft | 340 kts | 216° |
| 2026-05-07 21:27 | 12.05986 | -60.19724 | 15978 ft | 340 kts | 216° |
| 2026-05-07 21:27 | 12.04059 | -60.21072 | 15978 ft | 340 kts | 216° |
| 2026-05-07 21:27 | 12.02106 | -60.22441 | 15977 ft | 340 kts | 216° |
| 2026-05-07 21:28 | 12.00151 | -60.23810 | 15977 ft | 340 kts | 216° |
| 2026-05-07 21:28 | 11.98198 | -60.25177 | 15975 ft | 340 kts | 216° |
| 2026-05-07 21:28 | 11.96241 | -60.26547 | 15975 ft | 341 kts | 216° |
| 2026-05-07 21:28 | 11.94286 | -60.27915 | 15975 ft | 340 kts | 216° |
| 2026-05-07 21:29 | 11.92349 | -60.29271 | 15975 ft | 340 kts | 216° |
| 2026-05-07 21:29 | 11.90388 | -60.30643 | 15974 ft | 341 kts | 216° |
| 2026-05-07 21:29 | 11.88432 | -60.32012 | 15972 ft | 341 kts | 216° |
| 2026-05-07 21:29 | 11.87130 | -60.32922 | 15974 ft | 341 kts | 216° |
| 2026-05-07 21:30 | 11.84534 | -60.34738 | 15974 ft | 340 kts | 216° |
| 2026-05-07 21:30 | 11.83234 | -60.35648 | 15971 ft | 340 kts | 216° |
| 2026-05-07 21:30 | 11.80631 | -60.37468 | 15972 ft | 340 kts | 216° |
| 2026-05-07 21:30 | 11.79333 | -60.38375 | 15972 ft | 341 kts | 216° |
| 2026-05-07 21:31 | 11.77382 | -60.39738 | 15873 ft | 336 kts | 215° |
| 2026-05-07 21:31 | 11.75480 | -60.41067 | 15589 ft | 332 kts | 215° |
| 2026-05-07 21:31 | 11.73575 | -60.42397 | 15287 ft | 329 kts | 215° |
| 2026-05-07 21:31 | 11.71065 | -60.44150 | 14844 ft | 327 kts | 215° |
| 2026-05-07 21:32 | 11.69816 | -60.45023 | 14613 ft | 327 kts | 214° |
| 2026-05-07 21:32 | 11.67935 | -60.46336 | 14280 ft | 326 kts | 214° |
| 2026-05-07 21:32 | 11.66067 | -60.47640 | 13943 ft | 325 kts | 214° |
| 2026-05-07 21:32 | 11.64197 | -60.48945 | 13582 ft | 325 kts | 214° |
| 2026-05-07 21:33 | 11.62334 | -60.50246 | 13207 ft | 324 kts | 214° |
| 2026-05-07 21:33 | 11.60498 | -60.51528 | 12865 ft | 322 kts | 214° |
| 2026-05-07 21:33 | 11.58654 | -60.52815 | 12523 ft | 320 kts | 214° |
| 2026-05-07 21:33 | 11.56972 | -60.54293 | 12130 ft | 319 kts | 233° |
| 2026-05-07 21:34 | 11.55738 | -60.56162 | 11801 ft | 314 kts | 237° |
| 2026-05-07 21:34 | 11.54539 | -60.57967 | 11495 ft | 308 kts | 236° |
| 2026-05-07 21:34 | 11.53345 | -60.59768 | 11177 ft | 303 kts | 236° |
| 2026-05-07 21:34 | 11.52170 | -60.61539 | 10855 ft | 300 kts | 236° |
| 2026-05-07 21:35 | 11.50999 | -60.63306 | 10532 ft | 299 kts | 236° |
| 2026-05-07 21:35 | 11.49829 | -60.65070 | 10205 ft | 299 kts | 236° |
| 2026-05-07 21:35 | 11.48681 | -60.66802 | 9879 ft | 299 kts | 236° |
| 2026-05-07 21:35 | 11.47515 | -60.68561 | 9518 ft | 298 kts | 236° |
| 2026-05-07 21:36 | 11.46364 | -60.70297 | 9173 ft | 297 kts | 236° |
| 2026-05-07 21:36 | 11.45200 | -60.72052 | 8839 ft | 296 kts | 236° |
| 2026-05-07 21:36 | 11.44052 | -60.73782 | 8507 ft | 292 kts | 236° |
| 2026-05-07 21:36 | 11.42922 | -60.75486 | 8190 ft | 287 kts | 236° |
| 2026-05-07 21:37 | 11.41812 | -60.77158 | 7873 ft | 281 kts | 236° |
| 2026-05-07 21:37 | 11.40739 | -60.78776 | 7560 ft | 277 kts | 236° |
| 2026-05-07 21:37 | 11.39669 | -60.80388 | 7258 ft | 272 kts | 236° |
| 2026-05-07 21:37 | 11.38617 | -60.81972 | 6968 ft | 269 kts | 236° |
| 2026-05-07 21:38 | 11.37567 | -60.83554 | 6671 ft | 269 kts | 236° |
| 2026-05-07 21:38 | 11.36514 | -60.85140 | 6362 ft | 269 kts | 236° |
| 2026-05-07 21:38 | 11.35472 | -60.86707 | 6038 ft | 270 kts | 236° |
| 2026-05-07 21:38 | 11.34420 | -60.88292 | 5721 ft | 270 kts | 236° |
| 2026-05-07 21:39 | 11.33366 | -60.89878 | 5409 ft | 271 kts | 235° |
| 2026-05-07 21:39 | 11.32313 | -60.91474 | 5092 ft | 270 kts | 237° |
| 2026-05-07 21:39 | 11.31358 | -60.93101 | 4797 ft | 269 kts | 239° |
| 2026-05-07 21:39 | 11.30421 | -60.94752 | 4490 ft | 269 kts | 239° |
| 2026-05-07 21:40 | 11.29478 | -60.96402 | 4189 ft | 268 kts | 239° |
| 2026-05-07 21:40 | 11.28552 | -60.98028 | 4089 ft | 260 kts | 239° |
| 2026-05-07 21:40 | 11.27676 | -60.99566 | 4090 ft | 246 kts | 239° |
| 2026-05-07 21:40 | 11.26827 | -61.01055 | 4089 ft | 239 kts | 239° |
| 2026-05-07 21:41 | 11.25996 | -61.02515 | 4100 ft | 238 kts | 239° |
| 2026-05-07 21:41 | 11.25166 | -61.03986 | 4099 ft | 239 kts | 239° |
| 2026-05-07 21:41 | 11.24342 | -61.05438 | 4087 ft | 240 kts | 239° |
| 2026-05-07 21:41 | 11.23512 | -61.06910 | 4094 ft | 239 kts | 240° |
| 2026-05-07 21:42 | 11.22689 | -61.08377 | 4129 ft | 238 kts | 239° |
| 2026-05-07 21:42 | 11.21858 | -61.09851 | 4124 ft | 239 kts | 237° |
| 2026-05-07 21:42 | 11.20719 | -61.11007 | 4069 ft | 233 kts | 206° |
| 2026-05-07 21:42 | 11.19190 | -61.11460 | 4094 ft | 230 kts | 182° |
| 2026-05-07 21:43 | 11.17652 | -61.11178 | 4069 ft | 223 kts | 149° |
| 2026-05-07 21:43 | 11.16512 | -61.10159 | 4089 ft | 212 kts | 123° |
| 2026-05-07 21:43 | 11.16019 | -61.08850 | 4066 ft | 194 kts | 91° |
| 2026-05-07 21:43 | 11.16216 | -61.07526 | 4095 ft | 188 kts | 78° |
| 2026-05-07 21:44 | 11.16395 | -61.06230 | 4125 ft | 178 kts | 85° |
| 2026-05-07 21:44 | 11.16430 | -61.04987 | 3908 ft | 173 kts | 90° |
| 2026-05-07 21:44 | 11.16402 | -61.03785 | 3676 ft | 168 kts | 91° |
| 2026-05-07 21:44 | 11.16343 | -61.02609 | 3451 ft | 165 kts | 92° |
| 2026-05-07 21:45 | 11.16269 | -61.01457 | 3240 ft | 165 kts | 92° |
| 2026-05-07 21:45 | 11.16191 | -61.00294 | 3018 ft | 164 kts | 92° |
| 2026-05-07 21:45 | 11.16111 | -60.99138 | 2802 ft | 163 kts | 92° |
| 2026-05-07 21:45 | 11.16028 | -60.97980 | 2587 ft | 164 kts | 92° |
| 2026-05-07 21:46 | 11.15945 | -60.96818 | 2379 ft | 163 kts | 92° |
| 2026-05-07 21:46 | 11.15865 | -60.95704 | 2168 ft | 154 kts | 92° |
| 2026-05-07 21:46 | 11.15789 | -60.94643 | 1975 ft | 152 kts | 92° |
| 2026-05-07 21:46 | 11.15713 | -60.93574 | 1768 ft | 151 kts | 92° |
| 2026-05-07 21:47 | 11.15637 | -60.92519 | 1582 ft | 146 kts | 92° |
| 2026-05-07 21:47 | 11.15562 | -60.91509 | 1430 ft | 141 kts | 91° |
| 2026-05-07 21:47 | 11.15493 | -60.90536 | 1235 ft | 138 kts | 91° |
| 2026-05-07 21:47 | 11.15424 | -60.89562 | 1050 ft | 137 kts | 93° |
| 2026-05-07 21:48 | 11.15353 | -60.88587 | 864 ft | 139 kts | 90° |
| 2026-05-07 21:48 | 11.15270 | -60.87607 | 687 ft | 139 kts | 90° |
| 2026-05-07 21:48 | 11.15193 | -60.86652 | 532 ft | 139 kts | 91° |
| 2026-05-07 21:48 | 11.15133 | -60.85671 | 329 ft | 144 kts | 89° |
| 2026-05-07 21:49 | 11.15073 | -60.84672 | 118 ft | 138 kts | 92° |
| 2026-05-07 21:49 | 11.15009 | -60.83759 | 49 ft | 117 kts | 92° |
| 2026-05-07 21:49 | 11.14963 | -60.83125 | 51 ft | 56 kts | 94° |
| 2026-05-07 21:49 | 11.14938 | -60.82771 | 50 ft | 51 kts | 95° |
| 2026-05-07 21:50 | 11.14910 | -60.82412 | 48 ft | 50 kts | 94° |
| 2026-05-07 21:50 | 11.14890 | -60.82143 | 45 ft | 24 kts | 95° |
| 2026-05-07 21:50 | 11.14857 | -60.82065 | 48 ft | 11 kts | 131° |
| 2026-05-07 21:50 | 11.14850 | -60.82003 | 46 ft | 6 kts | 49° |
| 2026-05-07 21:51 | 11.14881 | -60.82019 | 45 ft | 6 kts | 278° |
| 2026-05-07 21:51 | 11.14886 | -60.82078 | 47 ft | 10 kts | 274° |
| 2026-05-07 21:51 | 11.14892 | -60.82164 | 47 ft | 14 kts | 274° |
| 2026-05-07 21:51 | 11.14899 | -60.82272 | 47 ft | 17 kts | 273° |
| 2026-05-07 21:52 | 11.14909 | -60.82399 | 48 ft | 19 kts | 275° |
| 2026-05-07 21:52 | 11.14920 | -60.82545 | 48 ft | 22 kts | 274° |
| 2026-05-07 21:52 | 11.14932 | -60.82709 | 49 ft | 24 kts | 275° |
| 2026-05-07 21:52 | 11.14946 | -60.82887 | 50 ft | 27 kts | 274° |
| 2026-05-07 21:53 | 11.14959 | -60.83085 | 50 ft | 29 kts | 274° |
| 2026-05-07 21:53 | 11.14977 | -60.83295 | 50 ft | 32 kts | 275° |
| 2026-05-07 21:53 | 11.14993 | -60.83529 | 47 ft | 34 kts | 275° |
| 2026-05-07 21:53 | 11.15012 | -60.83780 | 47 ft | 28 kts | 274° |
| 2026-05-07 21:54 | 11.15023 | -60.83934 | 46 ft | 20 kts | 273° |
| 2026-05-07 21:54 | 11.15033 | -60.83973 | 46 ft | 4 kts | 313° |
| 2026-05-07 21:54 | 11.15065 | -60.83978 | 46 ft | 6 kts | 6° |
| 2026-05-07 21:54 | 11.15109 | -60.83982 | 46 ft | 6 kts | 316° |
| 2026-05-07 21:55 | 11.15131 | -60.84005 | 46 ft | 5 kts | 336° |
| 2026-05-07 21:55 | 11.15157 | -60.84008 | 47 ft | 2 kts | 4° |
| 2026-05-07 21:55 | 11.15181 | -60.84006 | 47 ft | 5 kts | 5° |
| 2026-05-07 21:55 | 11.15193 | -60.84005 | 47 ft | 0 kts | 5° |